WAT249 FWKI-FVMV
Flight info
| Callsign | WAT249 |
|---|---|
| Flight time | 2h 31m |
| Altitude | 7000 |
| Route | ESPOP1E ESPOP UM315 USUBI UR409 VMV |
| Aircraft | C208/L-SDFGR/C |
Departure
| Time | 2026-04-17 21:54 |
|---|---|
| Airport | Kamuzu International Airport (FWKI) |
Arrival
| Time | 2026-04-18 00:25 |
|---|---|
| Airport | Masvingo International Airport (FVMV) |
| Time | Latitude | Longitude | Altitude | Speed | Heading |
|---|---|---|---|---|---|
| 2026-04-17 21:10 | -13.78653 | 33.78356 | 4024 ft | 0 kts | 6° |
| 2026-04-17 21:48 | -13.78651 | 33.78355 | 4022 ft | 1 kts | 329° |
| 2026-04-17 21:49 | -13.78659 | 33.78350 | 4025 ft | 4 kts | 182° |
| 2026-04-17 21:49 | -13.78715 | 33.78334 | 4024 ft | 12 kts | 201° |
| 2026-04-17 21:49 | -13.78797 | 33.78260 | 4024 ft | 19 kts | 249° |
| 2026-04-17 21:49 | -13.78722 | 33.78127 | 4024 ft | 25 kts | 309° |
| 2026-04-17 21:50 | -13.78608 | 33.77984 | 4025 ft | 27 kts | 309° |
| 2026-04-17 21:50 | -13.78487 | 33.77839 | 4026 ft | 24 kts | 313° |
| 2026-04-17 21:50 | -13.78391 | 33.77721 | 4026 ft | 21 kts | 311° |
| 2026-04-17 21:50 | -13.78289 | 33.77599 | 4026 ft | 25 kts | 309° |
| 2026-04-17 21:51 | -13.78171 | 33.77450 | 4025 ft | 24 kts | 311° |
| 2026-04-17 21:51 | -13.78098 | 33.77360 | 4025 ft | 8 kts | 310° |
| 2026-04-17 21:51 | -13.78041 | 33.77288 | 4026 ft | 17 kts | 310° |
| 2026-04-17 21:51 | -13.77947 | 33.77176 | 4026 ft | 23 kts | 307° |
| 2026-04-17 21:52 | -13.77838 | 33.77035 | 4026 ft | 27 kts | 303° |
| 2026-04-17 21:52 | -13.77889 | 33.76889 | 4026 ft | 26 kts | 200° |
| 2026-04-17 21:52 | -13.78037 | 33.77006 | 4025 ft | 35 kts | 131° |
| 2026-04-17 21:52 | -13.78263 | 33.77286 | 4023 ft | 68 kts | 130° |
| 2026-04-17 21:53 | -13.78632 | 33.77735 | 4041 ft | 93 kts | 128° |
| 2026-04-17 21:53 | -13.79063 | 33.78263 | 4136 ft | 99 kts | 124° |
| 2026-04-17 21:53 | -13.79448 | 33.78857 | 4269 ft | 100 kts | 121° |
| 2026-04-17 21:53 | -13.79850 | 33.79456 | 4413 ft | 104 kts | 120° |
| 2026-04-17 21:54 | -13.80284 | 33.80074 | 4574 ft | 109 kts | 119° |
| 2026-04-17 21:54 | -13.80741 | 33.80718 | 4772 ft | 113 kts | 119° |
| 2026-04-17 21:54 | -13.81219 | 33.81375 | 4946 ft | 116 kts | 120° |
| 2026-04-17 21:54 | -13.81714 | 33.82053 | 5129 ft | 121 kts | 121° |
| 2026-04-17 21:55 | -13.82280 | 33.82715 | 5297 ft | 129 kts | 143° |
| 2026-04-17 21:55 | -13.83186 | 33.82774 | 5474 ft | 140 kts | 197° |
| 2026-04-17 21:55 | -13.83892 | 33.82103 | 5666 ft | 143 kts | 249° |
| 2026-04-17 21:55 | -13.83892 | 33.81123 | 5861 ft | 138 kts | 300° |
| 2026-04-17 21:56 | -13.83256 | 33.80496 | 6055 ft | 124 kts | 348° |
| 2026-04-17 21:56 | -13.82467 | 33.80567 | 6255 ft | 113 kts | 36° |
| 2026-04-17 21:56 | -13.82098 | 33.81229 | 6455 ft | 112 kts | 87° |
| 2026-04-17 21:56 | -13.82443 | 33.81945 | 6642 ft | 121 kts | 138° |
| 2026-04-17 21:57 | -13.83273 | 33.82125 | 6822 ft | 130 kts | 190° |
| 2026-04-17 21:57 | -13.83993 | 33.81562 | 6998 ft | 135 kts | 242° |
| 2026-04-17 21:57 | -13.84122 | 33.80586 | 7020 ft | 145 kts | 289° |
| 2026-04-17 21:57 | -13.83686 | 33.79636 | 7019 ft | 158 kts | 291° |
| 2026-04-17 21:58 | -13.83805 | 33.78488 | 7020 ft | 172 kts | 240° |
| 2026-04-17 21:58 | -13.84726 | 33.77722 | 7018 ft | 175 kts | 193° |
| 2026-04-17 21:58 | -13.85924 | 33.77483 | 7024 ft | 179 kts | 198° |
| 2026-04-17 21:58 | -13.87056 | 33.76895 | 7020 ft | 184 kts | 206° |
| 2026-04-17 21:59 | -13.88181 | 33.76287 | 7011 ft | 180 kts | 203° |
| 2026-04-17 21:59 | -13.89307 | 33.75766 | 7010 ft | 177 kts | 200° |
| 2026-04-17 21:59 | -13.90436 | 33.75273 | 7005 ft | 175 kts | 200° |
| 2026-04-17 21:59 | -13.91553 | 33.74783 | 7001 ft | 174 kts | 200° |
| 2026-04-17 22:00 | -13.92663 | 33.74294 | 6999 ft | 174 kts | 200° |
| 2026-04-17 22:00 | -13.93774 | 33.73805 | 7002 ft | 173 kts | 200° |
| 2026-04-17 22:00 | -13.94881 | 33.73315 | 7003 ft | 174 kts | 200° |
| 2026-04-17 22:00 | -13.95994 | 33.72824 | 7006 ft | 174 kts | 200° |
| 2026-04-17 22:01 | -13.97105 | 33.72333 | 7003 ft | 174 kts | 200° |
| 2026-04-17 22:01 | -13.98214 | 33.71843 | 7003 ft | 173 kts | 200° |
| 2026-04-17 22:01 | -13.99322 | 33.71353 | 7003 ft | 173 kts | 200° |
| 2026-04-17 22:01 | -14.00429 | 33.70866 | 7005 ft | 173 kts | 200° |
| 2026-04-17 22:02 | -14.01536 | 33.70377 | 6993 ft | 173 kts | 201° |
| 2026-04-17 22:02 | -14.02632 | 33.69892 | 7005 ft | 171 kts | 201° |
| 2026-04-17 22:02 | -14.03732 | 33.69406 | 7001 ft | 172 kts | 201° |
| 2026-04-17 22:02 | -14.04835 | 33.68919 | 7004 ft | 172 kts | 201° |
| 2026-04-17 22:03 | -14.05933 | 33.68433 | 7005 ft | 172 kts | 201° |
| 2026-04-17 22:03 | -14.07042 | 33.67946 | 7001 ft | 174 kts | 201° |
| 2026-04-17 22:03 | -14.08157 | 33.67451 | 7004 ft | 174 kts | 201° |
| 2026-04-17 22:03 | -14.09271 | 33.66958 | 7010 ft | 175 kts | 201° |
| 2026-04-17 22:04 | -14.10390 | 33.66463 | 7004 ft | 175 kts | 201° |
| 2026-04-17 22:04 | -14.11508 | 33.65969 | 7012 ft | 175 kts | 201° |
| 2026-04-17 22:04 | -14.12629 | 33.65473 | 7013 ft | 175 kts | 201° |
| 2026-04-17 22:04 | -14.13747 | 33.64978 | 7013 ft | 175 kts | 201° |
| 2026-04-17 22:05 | -14.14869 | 33.64481 | 7006 ft | 175 kts | 201° |
| 2026-04-17 22:05 | -14.15989 | 33.63986 | 7004 ft | 174 kts | 201° |
| 2026-04-17 22:05 | -14.17085 | 33.63502 | 7011 ft | 175 kts | 201° |
| 2026-04-17 22:05 | -14.18223 | 33.62998 | 7007 ft | 175 kts | 200° |
| 2026-04-17 22:06 | -14.19332 | 33.62508 | 7002 ft | 174 kts | 201° |
| 2026-04-17 22:06 | -14.20446 | 33.62014 | 7003 ft | 173 kts | 201° |
| 2026-04-17 22:06 | -14.21555 | 33.61524 | 7009 ft | 174 kts | 201° |
| 2026-04-17 22:06 | -14.22666 | 33.61031 | 7008 ft | 173 kts | 201° |
| 2026-04-17 22:07 | -14.23759 | 33.60549 | 6999 ft | 173 kts | 201° |
| 2026-04-17 22:07 | -14.24882 | 33.60051 | 6999 ft | 173 kts | 201° |
| 2026-04-17 22:07 | -14.25972 | 33.59569 | 7000 ft | 173 kts | 201° |
| 2026-04-17 22:07 | -14.27096 | 33.59071 | 7005 ft | 174 kts | 201° |
| 2026-04-17 22:08 | -14.28204 | 33.58579 | 7005 ft | 173 kts | 201° |
| 2026-04-17 22:08 | -14.29295 | 33.58097 | 7004 ft | 173 kts | 201° |
| 2026-04-17 22:08 | -14.30395 | 33.57609 | 7008 ft | 172 kts | 201° |
| 2026-04-17 22:08 | -14.31500 | 33.57121 | 7008 ft | 173 kts | 201° |
| 2026-04-17 22:09 | -14.32607 | 33.56631 | 7006 ft | 174 kts | 201° |
| 2026-04-17 22:09 | -14.33713 | 33.56139 | 7007 ft | 173 kts | 201° |
| 2026-04-17 22:09 | -14.34823 | 33.55648 | 7004 ft | 173 kts | 202° |
| 2026-04-17 22:09 | -14.35923 | 33.55158 | 7009 ft | 172 kts | 201° |
| 2026-04-17 22:10 | -14.37030 | 33.54670 | 7009 ft | 174 kts | 202° |
| 2026-04-17 22:10 | -14.38142 | 33.54177 | 7012 ft | 174 kts | 202° |
| 2026-04-17 22:10 | -14.39257 | 33.53682 | 7014 ft | 175 kts | 201° |
| 2026-04-17 22:10 | -14.40371 | 33.53187 | 7012 ft | 174 kts | 201° |
| 2026-04-17 22:11 | -14.41482 | 33.52694 | 7013 ft | 174 kts | 202° |
| 2026-04-17 22:11 | -14.42589 | 33.52204 | 7003 ft | 173 kts | 201° |
| 2026-04-17 22:11 | -14.43688 | 33.51719 | 7006 ft | 172 kts | 201° |
| 2026-04-17 22:11 | -14.44789 | 33.51228 | 7002 ft | 172 kts | 202° |
| 2026-04-17 22:12 | -14.45890 | 33.50739 | 7007 ft | 172 kts | 202° |
| 2026-04-17 22:12 | -14.46986 | 33.50253 | 7002 ft | 172 kts | 201° |
| 2026-04-17 22:12 | -14.48086 | 33.49766 | 7001 ft | 171 kts | 201° |
| 2026-04-17 22:12 | -14.49169 | 33.49285 | 6993 ft | 169 kts | 201° |
| 2026-04-17 22:13 | -14.50244 | 33.48811 | 7001 ft | 167 kts | 201° |
| 2026-04-17 22:13 | -14.51309 | 33.48336 | 6994 ft | 168 kts | 201° |
| 2026-04-17 22:13 | -14.52396 | 33.47854 | 6998 ft | 170 kts | 201° |
| 2026-04-17 22:13 | -14.53486 | 33.47372 | 6991 ft | 170 kts | 202° |
| 2026-04-17 22:14 | -14.54570 | 33.46888 | 6998 ft | 170 kts | 201° |
| 2026-04-17 22:14 | -14.55656 | 33.46408 | 6994 ft | 170 kts | 202° |
| 2026-04-17 22:14 | -14.56736 | 33.45926 | 6994 ft | 169 kts | 201° |
| 2026-04-17 22:14 | -14.57816 | 33.45446 | 6998 ft | 170 kts | 202° |
| 2026-04-17 22:15 | -14.58903 | 33.44964 | 7000 ft | 170 kts | 201° |
| 2026-04-17 22:15 | -14.59993 | 33.44478 | 6996 ft | 171 kts | 202° |
| 2026-04-17 22:15 | -14.61087 | 33.43992 | 6992 ft | 172 kts | 201° |
| 2026-04-17 22:15 | -14.62190 | 33.43505 | 6991 ft | 172 kts | 202° |
| 2026-04-17 22:16 | -14.63289 | 33.43016 | 6994 ft | 173 kts | 202° |
| 2026-04-17 22:16 | -14.64392 | 33.42523 | 6997 ft | 173 kts | 201° |
| 2026-04-17 22:16 | -14.65493 | 33.42034 | 6997 ft | 172 kts | 201° |
| 2026-04-17 22:16 | -14.66589 | 33.41548 | 6988 ft | 171 kts | 202° |
| 2026-04-17 22:17 | -14.67674 | 33.41065 | 6992 ft | 170 kts | 202° |
| 2026-04-17 22:17 | -14.68755 | 33.40585 | 6986 ft | 168 kts | 202° |
| 2026-04-17 22:17 | -14.69835 | 33.40104 | 6984 ft | 170 kts | 202° |
| 2026-04-17 22:17 | -14.70917 | 33.39623 | 6990 ft | 169 kts | 202° |
| 2026-04-17 22:18 | -14.71992 | 33.39145 | 6984 ft | 168 kts | 202° |
| 2026-04-17 22:18 | -14.73062 | 33.38669 | 6983 ft | 168 kts | 202° |
| 2026-04-17 22:18 | -14.74138 | 33.38190 | 6983 ft | 168 kts | 202° |
| 2026-04-17 22:18 | -14.75207 | 33.37715 | 6977 ft | 167 kts | 202° |
| 2026-04-17 22:19 | -14.76276 | 33.37241 | 6974 ft | 167 kts | 202° |
| 2026-04-17 22:19 | -14.77348 | 33.36762 | 6964 ft | 168 kts | 202° |
| 2026-04-17 22:19 | -14.78421 | 33.36285 | 6963 ft | 168 kts | 202° |
| 2026-04-17 22:19 | -14.79484 | 33.35812 | 6962 ft | 167 kts | 202° |
| 2026-04-17 22:20 | -14.80555 | 33.35335 | 6962 ft | 166 kts | 202° |
| 2026-04-17 22:20 | -14.81617 | 33.34862 | 6963 ft | 166 kts | 202° |
| 2026-04-17 22:20 | -14.82679 | 33.34389 | 6965 ft | 166 kts | 202° |
| 2026-04-17 22:20 | -14.83739 | 33.33915 | 6966 ft | 166 kts | 202° |
| 2026-04-17 22:21 | -14.84802 | 33.33443 | 6972 ft | 166 kts | 202° |
| 2026-04-17 22:21 | -14.85859 | 33.32975 | 6950 ft | 166 kts | 202° |
| 2026-04-17 22:21 | -14.86928 | 33.32497 | 6960 ft | 167 kts | 202° |
| 2026-04-17 22:21 | -14.87993 | 33.32022 | 6960 ft | 167 kts | 202° |
| 2026-04-17 22:22 | -14.89063 | 33.31545 | 6959 ft | 168 kts | 202° |
| 2026-04-17 22:22 | -14.90128 | 33.31071 | 6961 ft | 168 kts | 202° |
| 2026-04-17 22:22 | -14.91204 | 33.30591 | 6958 ft | 168 kts | 202° |
| 2026-04-17 22:22 | -14.92274 | 33.30114 | 6948 ft | 167 kts | 202° |
| 2026-04-17 22:23 | -14.93323 | 33.29650 | 6960 ft | 164 kts | 202° |
| 2026-04-17 22:23 | -14.94371 | 33.29181 | 6954 ft | 164 kts | 202° |
| 2026-04-17 22:23 | -14.95425 | 33.28710 | 6958 ft | 166 kts | 202° |
| 2026-04-17 22:23 | -14.96489 | 33.28234 | 6957 ft | 167 kts | 202° |
| 2026-04-17 22:24 | -14.97555 | 33.27760 | 6962 ft | 167 kts | 202° |
| 2026-04-17 22:24 | -14.98620 | 33.27285 | 6947 ft | 166 kts | 203° |
| 2026-04-17 22:24 | -14.99681 | 33.26811 | 6953 ft | 167 kts | 203° |
| 2026-04-17 22:24 | -15.00717 | 33.26308 | 6945 ft | 167 kts | 206° |
| 2026-04-17 22:25 | -15.01769 | 33.25812 | 6941 ft | 166 kts | 204° |
| 2026-04-17 22:25 | -15.02821 | 33.25321 | 6935 ft | 166 kts | 204° |
| 2026-04-17 22:25 | -15.03868 | 33.24823 | 6941 ft | 166 kts | 204° |
| 2026-04-17 22:25 | -15.04914 | 33.24324 | 6936 ft | 165 kts | 204° |
| 2026-04-17 22:26 | -15.05957 | 33.23826 | 6933 ft | 165 kts | 205° |
| 2026-04-17 22:26 | -15.07005 | 33.23325 | 6947 ft | 167 kts | 204° |
| 2026-04-17 22:26 | -15.08056 | 33.22824 | 6937 ft | 166 kts | 205° |
| 2026-04-17 22:26 | -15.09105 | 33.22323 | 6943 ft | 166 kts | 205° |
| 2026-04-17 22:27 | -15.10151 | 33.21823 | 6942 ft | 165 kts | 205° |
| 2026-04-17 22:27 | -15.11195 | 33.21325 | 6932 ft | 165 kts | 205° |
| 2026-04-17 22:27 | -15.12239 | 33.20826 | 6931 ft | 165 kts | 205° |
| 2026-04-17 22:27 | -15.12945 | 33.20489 | 6931 ft | 165 kts | 205° |
| 2026-04-17 22:28 | -15.13986 | 33.19991 | 6928 ft | 165 kts | 204° |
| 2026-04-17 22:28 | -15.15027 | 33.19493 | 6931 ft | 165 kts | 204° |
| 2026-04-17 22:28 | -15.16072 | 33.18994 | 6933 ft | 165 kts | 205° |
| 2026-04-17 22:28 | -15.17116 | 33.18495 | 6932 ft | 165 kts | 205° |
| 2026-04-17 22:29 | -15.18144 | 33.18004 | 6922 ft | 165 kts | 205° |
| 2026-04-17 22:29 | -15.19180 | 33.17509 | 6921 ft | 165 kts | 205° |
| 2026-04-17 22:29 | -15.20226 | 33.17008 | 6920 ft | 165 kts | 205° |
| 2026-04-17 22:29 | -15.21270 | 33.16509 | 6930 ft | 165 kts | 205° |
| 2026-04-17 22:30 | -15.22313 | 33.16010 | 6918 ft | 165 kts | 204° |
| 2026-04-17 22:30 | -15.23356 | 33.15512 | 6923 ft | 165 kts | 204° |
| 2026-04-17 22:30 | -15.24404 | 33.15010 | 6915 ft | 166 kts | 204° |
| 2026-04-17 22:30 | -15.25452 | 33.14509 | 6913 ft | 166 kts | 204° |
| 2026-04-17 22:31 | -15.26502 | 33.14006 | 6917 ft | 166 kts | 204° |
| 2026-04-17 22:31 | -15.27553 | 33.13504 | 6912 ft | 167 kts | 204° |
| 2026-04-17 22:31 | -15.28606 | 33.13000 | 6913 ft | 167 kts | 205° |
| 2026-04-17 22:31 | -15.29660 | 33.12495 | 6915 ft | 167 kts | 204° |
| 2026-04-17 22:32 | -15.30712 | 33.11991 | 6916 ft | 167 kts | 204° |
| 2026-04-17 22:32 | -15.31762 | 33.11489 | 6920 ft | 166 kts | 204° |
| 2026-04-17 22:32 | -15.32809 | 33.10987 | 6920 ft | 166 kts | 204° |
| 2026-04-17 22:32 | -15.33856 | 33.10486 | 6915 ft | 166 kts | 204° |
| 2026-04-17 22:33 | -15.34897 | 33.09988 | 6907 ft | 166 kts | 204° |
| 2026-04-17 22:33 | -15.35945 | 33.09486 | 6910 ft | 165 kts | 204° |
| 2026-04-17 22:33 | -15.36990 | 33.08985 | 6910 ft | 166 kts | 204° |
| 2026-04-17 22:33 | -15.38037 | 33.08484 | 6907 ft | 165 kts | 204° |
| 2026-04-17 22:34 | -15.39080 | 33.07984 | 6917 ft | 165 kts | 204° |
| 2026-04-17 22:34 | -15.40125 | 33.07483 | 6916 ft | 166 kts | 204° |
| 2026-04-17 22:34 | -15.41172 | 33.06982 | 6915 ft | 166 kts | 204° |
| 2026-04-17 22:34 | -15.42215 | 33.06482 | 6914 ft | 165 kts | 204° |
| 2026-04-17 22:35 | -15.43257 | 33.05982 | 6918 ft | 165 kts | 204° |
| 2026-04-17 22:35 | -15.44305 | 33.05480 | 6917 ft | 166 kts | 204° |
| 2026-04-17 22:35 | -15.45350 | 33.04979 | 6909 ft | 166 kts | 204° |
| 2026-04-17 22:35 | -15.46396 | 33.04477 | 6912 ft | 166 kts | 204° |
| 2026-04-17 22:36 | -15.47443 | 33.03975 | 6915 ft | 166 kts | 204° |
| 2026-04-17 22:36 | -15.48489 | 33.03474 | 6908 ft | 166 kts | 204° |
| 2026-04-17 22:36 | -15.49535 | 33.02972 | 6912 ft | 165 kts | 204° |
| 2026-04-17 22:36 | -15.50578 | 33.02471 | 6903 ft | 165 kts | 204° |
| 2026-04-17 22:37 | -15.51623 | 33.01970 | 6909 ft | 165 kts | 204° |
| 2026-04-17 22:37 | -15.52668 | 33.01469 | 6901 ft | 165 kts | 204° |
| 2026-04-17 22:37 | -15.53698 | 33.00974 | 6910 ft | 165 kts | 204° |
| 2026-04-17 22:37 | -15.54743 | 33.00473 | 6901 ft | 165 kts | 204° |
| 2026-04-17 22:38 | -15.55804 | 32.99964 | 6912 ft | 166 kts | 204° |
| 2026-04-17 22:38 | -15.56834 | 32.99469 | 6912 ft | 166 kts | 204° |
| 2026-04-17 22:38 | -15.57880 | 32.98967 | 6912 ft | 166 kts | 204° |
| 2026-04-17 22:38 | -15.58925 | 32.98464 | 6910 ft | 166 kts | 205° |
| 2026-04-17 22:39 | -15.59967 | 32.97952 | 6906 ft | 166 kts | 205° |
| 2026-04-17 22:39 | -15.61014 | 32.97437 | 6904 ft | 166 kts | 205° |
| 2026-04-17 22:39 | -15.63099 | 32.96414 | 6918 ft | 166 kts | 205° |
| 2026-04-17 22:40 | -15.64141 | 32.95904 | 6915 ft | 166 kts | 205° |
| 2026-04-17 22:40 | -15.65184 | 32.95391 | 6915 ft | 166 kts | 204° |
| 2026-04-17 22:40 | -15.66228 | 32.94879 | 6915 ft | 166 kts | 204° |
| 2026-04-17 22:40 | -15.67274 | 32.94365 | 6912 ft | 166 kts | 204° |
| 2026-04-17 22:41 | -15.68314 | 32.93855 | 6913 ft | 165 kts | 204° |
| 2026-04-17 22:41 | -15.69353 | 32.93346 | 6907 ft | 165 kts | 204° |
| 2026-04-17 22:41 | -15.70392 | 32.92838 | 6906 ft | 165 kts | 204° |
| 2026-04-17 22:41 | -15.71426 | 32.92329 | 6913 ft | 165 kts | 205° |
| 2026-04-17 22:42 | -15.72464 | 32.91818 | 6903 ft | 165 kts | 205° |
| 2026-04-17 22:42 | -15.73500 | 32.91310 | 6908 ft | 165 kts | 204° |
| 2026-04-17 22:42 | -15.74537 | 32.90800 | 6910 ft | 165 kts | 205° |
| 2026-04-17 22:42 | -15.75572 | 32.90292 | 6907 ft | 165 kts | 204° |
| 2026-04-17 22:43 | -15.76611 | 32.89782 | 6914 ft | 165 kts | 205° |
| 2026-04-17 22:43 | -15.77648 | 32.89272 | 6915 ft | 165 kts | 204° |
| 2026-04-17 22:43 | -15.78687 | 32.88762 | 6913 ft | 165 kts | 204° |
| 2026-04-17 22:43 | -15.79721 | 32.88253 | 6915 ft | 165 kts | 204° |
| 2026-04-17 22:44 | -15.80757 | 32.87745 | 6913 ft | 164 kts | 204° |
| 2026-04-17 22:44 | -15.81785 | 32.87239 | 6912 ft | 165 kts | 204° |
| 2026-04-17 22:44 | -15.82825 | 32.86728 | 6914 ft | 165 kts | 204° |
| 2026-04-17 22:44 | -15.83866 | 32.86217 | 6910 ft | 165 kts | 204° |
| 2026-04-17 22:45 | -15.84906 | 32.85705 | 6908 ft | 165 kts | 204° |
| 2026-04-17 22:45 | -15.85944 | 32.85195 | 6914 ft | 165 kts | 204° |
| 2026-04-17 22:45 | -15.86979 | 32.84686 | 6914 ft | 165 kts | 204° |
| 2026-04-17 22:45 | -15.88018 | 32.84175 | 6913 ft | 165 kts | 204° |
| 2026-04-17 22:46 | -15.89052 | 32.83666 | 6913 ft | 165 kts | 204° |
| 2026-04-17 22:46 | -15.90088 | 32.83157 | 6916 ft | 165 kts | 204° |
| 2026-04-17 22:46 | -15.91121 | 32.82648 | 6911 ft | 165 kts | 204° |
| 2026-04-17 22:46 | -15.92159 | 32.82138 | 6914 ft | 165 kts | 204° |
| 2026-04-17 22:47 | -15.93181 | 32.81635 | 6909 ft | 165 kts | 204° |
| 2026-04-17 22:47 | -15.94216 | 32.81126 | 6918 ft | 165 kts | 204° |
| 2026-04-17 22:47 | -15.95252 | 32.80615 | 6908 ft | 165 kts | 204° |
| 2026-04-17 22:47 | -15.96301 | 32.80099 | 6908 ft | 165 kts | 204° |
| 2026-04-17 22:48 | -15.97339 | 32.79588 | 6913 ft | 165 kts | 204° |
| 2026-04-17 22:48 | -15.98376 | 32.79078 | 6907 ft | 165 kts | 204° |
| 2026-04-17 22:48 | -15.99411 | 32.78568 | 6917 ft | 164 kts | 204° |
| 2026-04-17 22:48 | -16.00431 | 32.78066 | 6914 ft | 164 kts | 204° |
| 2026-04-17 22:49 | -16.01463 | 32.77558 | 6915 ft | 164 kts | 204° |
| 2026-04-17 22:49 | -16.02497 | 32.77048 | 6912 ft | 165 kts | 204° |
| 2026-04-17 22:49 | -16.03541 | 32.76534 | 6917 ft | 164 kts | 204° |
| 2026-04-17 22:49 | -16.04578 | 32.76022 | 6910 ft | 164 kts | 204° |
| 2026-04-17 22:50 | -16.05597 | 32.75520 | 6919 ft | 164 kts | 204° |
| 2026-04-17 22:50 | -16.06631 | 32.75011 | 6920 ft | 164 kts | 204° |
| 2026-04-17 22:50 | -16.07680 | 32.74494 | 6916 ft | 164 kts | 204° |
| 2026-04-17 22:50 | -16.08699 | 32.73992 | 6920 ft | 165 kts | 204° |
| 2026-04-17 22:51 | -16.09749 | 32.73474 | 6912 ft | 164 kts | 204° |
| 2026-04-17 22:51 | -16.10768 | 32.72971 | 6912 ft | 164 kts | 204° |
| 2026-04-17 22:51 | -16.11802 | 32.72461 | 6919 ft | 165 kts | 204° |
| 2026-04-17 22:51 | -16.12836 | 32.71952 | 6921 ft | 165 kts | 204° |
| 2026-04-17 22:52 | -16.13871 | 32.71441 | 6921 ft | 165 kts | 204° |
| 2026-04-17 22:52 | -16.14904 | 32.70931 | 6914 ft | 165 kts | 204° |
| 2026-04-17 22:52 | -16.15942 | 32.70419 | 6926 ft | 165 kts | 204° |
| 2026-04-17 22:52 | -16.16977 | 32.69909 | 6925 ft | 165 kts | 204° |
| 2026-04-17 22:53 | -16.18015 | 32.69397 | 6922 ft | 165 kts | 204° |
| 2026-04-17 22:53 | -16.19049 | 32.68886 | 6917 ft | 164 kts | 204° |
| 2026-04-17 22:53 | -16.20081 | 32.68377 | 6922 ft | 164 kts | 204° |
| 2026-04-17 22:53 | -16.21117 | 32.67866 | 6920 ft | 165 kts | 204° |
| 2026-04-17 22:54 | -16.22154 | 32.67353 | 6922 ft | 165 kts | 204° |
| 2026-04-17 22:54 | -16.23189 | 32.66842 | 6922 ft | 165 kts | 204° |
| 2026-04-17 22:54 | -16.24223 | 32.66332 | 6922 ft | 165 kts | 204° |
| 2026-04-17 22:54 | -16.25257 | 32.65822 | 6921 ft | 164 kts | 204° |
| 2026-04-17 22:55 | -16.26292 | 32.65310 | 6921 ft | 164 kts | 204° |
| 2026-04-17 22:55 | -16.27327 | 32.64799 | 6924 ft | 165 kts | 204° |
| 2026-04-17 22:55 | -16.28361 | 32.64288 | 6925 ft | 164 kts | 204° |
| 2026-04-17 22:55 | -16.29391 | 32.63779 | 6925 ft | 164 kts | 204° |
| 2026-04-17 22:56 | -16.30421 | 32.63270 | 6914 ft | 164 kts | 204° |
| 2026-04-17 22:56 | -16.31449 | 32.62762 | 6925 ft | 164 kts | 204° |
| 2026-04-17 22:56 | -16.32481 | 32.62252 | 6925 ft | 164 kts | 204° |
| 2026-04-17 22:56 | -16.33511 | 32.61743 | 6927 ft | 164 kts | 204° |
| 2026-04-17 22:57 | -16.34546 | 32.61231 | 6931 ft | 165 kts | 204° |
| 2026-04-17 22:57 | -16.35581 | 32.60720 | 6921 ft | 165 kts | 204° |
| 2026-04-17 22:57 | -16.36616 | 32.60207 | 6921 ft | 165 kts | 204° |
| 2026-04-17 22:57 | -16.37649 | 32.59696 | 6931 ft | 164 kts | 204° |
| 2026-04-17 22:58 | -16.38683 | 32.59185 | 6928 ft | 165 kts | 204° |
| 2026-04-17 22:58 | -16.39717 | 32.58673 | 6928 ft | 165 kts | 204° |
| 2026-04-17 22:58 | -16.40755 | 32.58160 | 6934 ft | 165 kts | 204° |
| 2026-04-17 22:58 | -16.41791 | 32.57647 | 6936 ft | 165 kts | 204° |
| 2026-04-17 22:59 | -16.42829 | 32.57134 | 6936 ft | 165 kts | 204° |
| 2026-04-17 22:59 | -16.43858 | 32.56624 | 6936 ft | 165 kts | 204° |
| 2026-04-17 22:59 | -16.44907 | 32.56105 | 6936 ft | 165 kts | 204° |
| 2026-04-17 22:59 | -16.45945 | 32.55591 | 6936 ft | 165 kts | 204° |
| 2026-04-17 23:00 | -16.46985 | 32.55077 | 6935 ft | 165 kts | 204° |
| 2026-04-17 23:00 | -16.48022 | 32.54563 | 6934 ft | 165 kts | 204° |
| 2026-04-17 23:00 | -16.49060 | 32.54049 | 6930 ft | 165 kts | 204° |
| 2026-04-17 23:00 | -16.50097 | 32.53536 | 6934 ft | 165 kts | 204° |
| 2026-04-17 23:01 | -16.51144 | 32.53053 | 6934 ft | 165 kts | 202° |
| 2026-04-17 23:01 | -16.52187 | 32.52553 | 6934 ft | 165 kts | 204° |
| 2026-04-17 23:01 | -16.53218 | 32.52055 | 6940 ft | 165 kts | 203° |
| 2026-04-17 23:01 | -16.54265 | 32.51558 | 6940 ft | 165 kts | 203° |
| 2026-04-17 23:02 | -16.55312 | 32.51062 | 6944 ft | 165 kts | 203° |
| 2026-04-17 23:02 | -16.56357 | 32.50568 | 6942 ft | 165 kts | 203° |
| 2026-04-17 23:02 | -16.57403 | 32.50074 | 6942 ft | 165 kts | 203° |
| 2026-04-17 23:02 | -16.58448 | 32.49580 | 6943 ft | 165 kts | 203° |
| 2026-04-17 23:03 | -16.59494 | 32.49085 | 6940 ft | 165 kts | 203° |
| 2026-04-17 23:03 | -16.60539 | 32.48592 | 6940 ft | 165 kts | 204° |
| 2026-04-17 23:03 | -16.61581 | 32.48099 | 6940 ft | 165 kts | 204° |
| 2026-04-17 23:03 | -16.62621 | 32.47606 | 6941 ft | 164 kts | 203° |
| 2026-04-17 23:04 | -16.63663 | 32.47114 | 6946 ft | 164 kts | 203° |
| 2026-04-17 23:04 | -16.64706 | 32.46620 | 6946 ft | 165 kts | 203° |
| 2026-04-17 23:04 | -16.65747 | 32.46128 | 6947 ft | 165 kts | 204° |
| 2026-04-17 23:04 | -16.66792 | 32.45633 | 6949 ft | 165 kts | 204° |
| 2026-04-17 23:05 | -16.67834 | 32.45140 | 6951 ft | 164 kts | 204° |
| 2026-04-17 23:05 | -16.68873 | 32.44649 | 6943 ft | 163 kts | 203° |
| 2026-04-17 23:05 | -16.69907 | 32.44158 | 6950 ft | 163 kts | 204° |
| 2026-04-17 23:05 | -16.70941 | 32.43669 | 6945 ft | 164 kts | 204° |
| 2026-04-17 23:06 | -16.71982 | 32.43177 | 6947 ft | 164 kts | 204° |
| 2026-04-17 23:06 | -16.73023 | 32.42684 | 6949 ft | 165 kts | 204° |
| 2026-04-17 23:06 | -16.74065 | 32.42190 | 6949 ft | 165 kts | 204° |
| 2026-04-17 23:06 | -16.75107 | 32.41696 | 6948 ft | 164 kts | 204° |
| 2026-04-17 23:07 | -16.76150 | 32.41203 | 6949 ft | 164 kts | 203° |
| 2026-04-17 23:07 | -16.77191 | 32.40709 | 6949 ft | 164 kts | 203° |
| 2026-04-17 23:07 | -16.78232 | 32.40216 | 6949 ft | 164 kts | 203° |
| 2026-04-17 23:07 | -16.79273 | 32.39723 | 6957 ft | 164 kts | 203° |
| 2026-04-17 23:08 | -16.80318 | 32.39227 | 6948 ft | 165 kts | 204° |
| 2026-04-17 23:08 | -16.81361 | 32.38733 | 6955 ft | 165 kts | 204° |
| 2026-04-17 23:08 | -16.82403 | 32.38239 | 6956 ft | 164 kts | 204° |
| 2026-04-17 23:08 | -16.83445 | 32.37745 | 6949 ft | 165 kts | 204° |
| 2026-04-17 23:09 | -16.84484 | 32.37252 | 6951 ft | 164 kts | 203° |
| 2026-04-17 23:09 | -16.85528 | 32.36757 | 6945 ft | 165 kts | 203° |
| 2026-04-17 23:09 | -16.86571 | 32.36262 | 6953 ft | 164 kts | 203° |
| 2026-04-17 23:09 | -16.87613 | 32.35768 | 6953 ft | 164 kts | 204° |
| 2026-04-17 23:10 | -16.88652 | 32.35275 | 6951 ft | 164 kts | 204° |
| 2026-04-17 23:10 | -16.89693 | 32.34781 | 6950 ft | 165 kts | 204° |
| 2026-04-17 23:10 | -16.90723 | 32.34292 | 6953 ft | 165 kts | 203° |
| 2026-04-17 23:10 | -16.91767 | 32.33797 | 6947 ft | 165 kts | 203° |
| 2026-04-17 23:11 | -16.92825 | 32.33295 | 6958 ft | 165 kts | 203° |
| 2026-04-17 23:11 | -16.93856 | 32.32806 | 6955 ft | 165 kts | 203° |
| 2026-04-17 23:11 | -16.94902 | 32.32309 | 6953 ft | 165 kts | 203° |
| 2026-04-17 23:11 | -16.95947 | 32.31813 | 6949 ft | 165 kts | 203° |
| 2026-04-17 23:12 | -16.96994 | 32.31315 | 6951 ft | 165 kts | 203° |
| 2026-04-17 23:12 | -16.97705 | 32.30979 | 6949 ft | 166 kts | 203° |
| 2026-04-17 23:12 | -16.99093 | 32.30319 | 6951 ft | 166 kts | 203° |
| 2026-04-17 23:12 | -17.00141 | 32.29820 | 6956 ft | 166 kts | 203° |
| 2026-04-17 23:13 | -17.01193 | 32.29321 | 6954 ft | 166 kts | 203° |
| 2026-04-17 23:13 | -17.01903 | 32.28984 | 6955 ft | 166 kts | 203° |
| 2026-04-17 23:13 | -17.03293 | 32.28323 | 6957 ft | 165 kts | 203° |
| 2026-04-17 23:13 | -17.04338 | 32.27827 | 6952 ft | 165 kts | 203° |
| 2026-04-17 23:14 | -17.05043 | 32.27492 | 6969 ft | 165 kts | 203° |
| 2026-04-17 23:14 | -17.06086 | 32.26996 | 6960 ft | 165 kts | 203° |
| 2026-04-17 23:14 | -17.07127 | 32.26501 | 6967 ft | 164 kts | 203° |
| 2026-04-17 23:14 | -17.08167 | 32.26006 | 6967 ft | 164 kts | 203° |
| 2026-04-17 23:15 | -17.09207 | 32.25512 | 6971 ft | 165 kts | 203° |
| 2026-04-17 23:15 | -17.10252 | 32.25015 | 6965 ft | 165 kts | 203° |
| 2026-04-17 23:15 | -17.11295 | 32.24519 | 6970 ft | 165 kts | 203° |
| 2026-04-17 23:15 | -17.12319 | 32.24039 | 6969 ft | 164 kts | 202° |
| 2026-04-17 23:16 | -17.13367 | 32.23548 | 6958 ft | 165 kts | 203° |
| 2026-04-17 23:16 | -17.14415 | 32.23056 | 6967 ft | 165 kts | 202° |
| 2026-04-17 23:16 | -17.15460 | 32.22564 | 6968 ft | 165 kts | 202° |
| 2026-04-17 23:16 | -17.16505 | 32.22075 | 6963 ft | 164 kts | 202° |
| 2026-04-17 23:17 | -17.17544 | 32.21586 | 6961 ft | 164 kts | 203° |
| 2026-04-17 23:17 | -17.18590 | 32.21094 | 6966 ft | 165 kts | 203° |
| 2026-04-17 23:17 | -17.19634 | 32.20603 | 6969 ft | 165 kts | 203° |
| 2026-04-17 23:17 | -17.20677 | 32.20113 | 6973 ft | 164 kts | 203° |
| 2026-04-17 23:18 | -17.21721 | 32.19622 | 6962 ft | 164 kts | 203° |
| 2026-04-17 23:18 | -17.22763 | 32.19132 | 6970 ft | 164 kts | 203° |
| 2026-04-17 23:18 | -17.23805 | 32.18642 | 6967 ft | 164 kts | 203° |
| 2026-04-17 23:18 | -17.24852 | 32.18151 | 6972 ft | 166 kts | 204° |
| 2026-04-17 23:19 | -17.25908 | 32.17654 | 6967 ft | 166 kts | 204° |
| 2026-04-17 23:19 | -17.26965 | 32.17156 | 6970 ft | 167 kts | 204° |
| 2026-04-17 23:19 | -17.28027 | 32.16656 | 6980 ft | 168 kts | 204° |
| 2026-04-17 23:19 | -17.29093 | 32.16154 | 6969 ft | 168 kts | 204° |
| 2026-04-17 23:20 | -17.30154 | 32.15655 | 6974 ft | 167 kts | 204° |
| 2026-04-17 23:20 | -17.31212 | 32.15158 | 6980 ft | 167 kts | 204° |
| 2026-04-17 23:20 | -17.32276 | 32.14657 | 6978 ft | 167 kts | 204° |
| 2026-04-17 23:20 | -17.33336 | 32.14157 | 6983 ft | 167 kts | 204° |
| 2026-04-17 23:21 | -17.34382 | 32.13665 | 6979 ft | 167 kts | 204° |
| 2026-04-17 23:21 | -17.35443 | 32.13165 | 6975 ft | 166 kts | 203° |
| 2026-04-17 23:21 | -17.36493 | 32.12671 | 6980 ft | 166 kts | 204° |
| 2026-04-17 23:21 | -17.37546 | 32.12175 | 6978 ft | 166 kts | 204° |
| 2026-04-17 23:22 | -17.38599 | 32.11679 | 6978 ft | 166 kts | 204° |
| 2026-04-17 23:22 | -17.39656 | 32.11181 | 6982 ft | 167 kts | 204° |
| 2026-04-17 23:22 | -17.40710 | 32.10684 | 6977 ft | 167 kts | 204° |
| 2026-04-17 23:22 | -17.41770 | 32.10184 | 6982 ft | 167 kts | 204° |
| 2026-04-17 23:23 | -17.42831 | 32.09684 | 6980 ft | 167 kts | 204° |
| 2026-04-17 23:23 | -17.43890 | 32.09185 | 6989 ft | 167 kts | 204° |
| 2026-04-17 23:23 | -17.44951 | 32.08684 | 6986 ft | 167 kts | 204° |
| 2026-04-17 23:23 | -17.46010 | 32.08186 | 6988 ft | 167 kts | 204° |
| 2026-04-17 23:24 | -17.47067 | 32.07688 | 6988 ft | 167 kts | 204° |
| 2026-04-17 23:24 | -17.48124 | 32.07188 | 6996 ft | 167 kts | 204° |
| 2026-04-17 23:24 | -17.49182 | 32.06689 | 6994 ft | 167 kts | 204° |
| 2026-04-17 23:24 | -17.50245 | 32.06188 | 6995 ft | 167 kts | 204° |
| 2026-04-17 23:25 | -17.51306 | 32.05687 | 6992 ft | 167 kts | 204° |
| 2026-04-17 23:25 | -17.52369 | 32.05186 | 6996 ft | 168 kts | 204° |
| 2026-04-17 23:25 | -17.53434 | 32.04683 | 6996 ft | 168 kts | 204° |
| 2026-04-17 23:25 | -17.54497 | 32.04181 | 6994 ft | 168 kts | 204° |
| 2026-04-17 23:26 | -17.55562 | 32.03678 | 6993 ft | 167 kts | 204° |
| 2026-04-17 23:26 | -17.56622 | 32.03178 | 6992 ft | 167 kts | 204° |
| 2026-04-17 23:26 | -17.57687 | 32.02677 | 6991 ft | 168 kts | 204° |
| 2026-04-17 23:26 | -17.58755 | 32.02171 | 6996 ft | 169 kts | 204° |
| 2026-04-17 23:27 | -17.59825 | 32.01666 | 6999 ft | 169 kts | 204° |
| 2026-04-17 23:27 | -17.60897 | 32.01159 | 6993 ft | 169 kts | 204° |
| 2026-04-17 23:27 | -17.61969 | 32.00653 | 6995 ft | 169 kts | 204° |
| 2026-04-17 23:27 | -17.63041 | 32.00146 | 7001 ft | 170 kts | 204° |
| 2026-04-17 23:28 | -17.64118 | 31.99637 | 6996 ft | 170 kts | 204° |
| 2026-04-17 23:28 | -17.65195 | 31.99128 | 6995 ft | 170 kts | 204° |
| 2026-04-17 23:28 | -17.66276 | 31.98617 | 6997 ft | 170 kts | 204° |
| 2026-04-17 23:28 | -17.67355 | 31.98107 | 6995 ft | 170 kts | 204° |
| 2026-04-17 23:29 | -17.68434 | 31.97597 | 6995 ft | 170 kts | 204° |
| 2026-04-17 23:29 | -17.69517 | 31.97085 | 6993 ft | 170 kts | 204° |
| 2026-04-17 23:29 | -17.70598 | 31.96574 | 7004 ft | 171 kts | 204° |
| 2026-04-17 23:29 | -17.71680 | 31.96061 | 6998 ft | 171 kts | 204° |
| 2026-04-17 23:30 | -17.72764 | 31.95549 | 7000 ft | 171 kts | 204° |
| 2026-04-17 23:30 | -17.73851 | 31.95034 | 7003 ft | 171 kts | 204° |
| 2026-04-17 23:30 | -17.74921 | 31.94529 | 6996 ft | 171 kts | 204° |
| 2026-04-17 23:30 | -17.76002 | 31.94014 | 6996 ft | 171 kts | 204° |
| 2026-04-17 23:31 | -17.77097 | 31.93499 | 7003 ft | 170 kts | 204° |
| 2026-04-17 23:31 | -17.78177 | 31.92988 | 7005 ft | 170 kts | 204° |
| 2026-04-17 23:31 | -17.79240 | 31.92485 | 7001 ft | 169 kts | 204° |
| 2026-04-17 23:31 | -17.80302 | 31.91981 | 6999 ft | 169 kts | 204° |
| 2026-04-17 23:32 | -17.81377 | 31.91472 | 7002 ft | 169 kts | 204° |
| 2026-04-17 23:32 | -17.82452 | 31.90963 | 7002 ft | 169 kts | 204° |
| 2026-04-17 23:32 | -17.83528 | 31.90454 | 6999 ft | 170 kts | 204° |
| 2026-04-17 23:32 | -17.84605 | 31.89943 | 7001 ft | 170 kts | 204° |
| 2026-04-17 23:33 | -17.85688 | 31.89430 | 7008 ft | 171 kts | 204° |
| 2026-04-17 23:33 | -17.86772 | 31.88916 | 7001 ft | 171 kts | 204° |
| 2026-04-17 23:33 | -17.87855 | 31.88403 | 7008 ft | 171 kts | 204° |
| 2026-04-17 23:33 | -17.88942 | 31.87888 | 7004 ft | 172 kts | 205° |
| 2026-04-17 23:34 | -17.90032 | 31.87371 | 6999 ft | 172 kts | 205° |
| 2026-04-17 23:34 | -17.91122 | 31.86854 | 7005 ft | 173 kts | 205° |
| 2026-04-17 23:34 | -17.92216 | 31.86335 | 7004 ft | 173 kts | 205° |
| 2026-04-17 23:34 | -17.93311 | 31.85816 | 7000 ft | 173 kts | 205° |
| 2026-04-17 23:35 | -17.94409 | 31.85295 | 7004 ft | 173 kts | 205° |
| 2026-04-17 23:35 | -17.95509 | 31.84773 | 7011 ft | 174 kts | 205° |
| 2026-04-17 23:35 | -17.96609 | 31.84251 | 7008 ft | 174 kts | 205° |
| 2026-04-17 23:35 | -17.97712 | 31.83727 | 7002 ft | 174 kts | 205° |
| 2026-04-17 23:36 | -17.98818 | 31.83203 | 7000 ft | 174 kts | 205° |
| 2026-04-17 23:36 | -17.99917 | 31.82681 | 7008 ft | 174 kts | 205° |
| 2026-04-17 23:36 | -18.01013 | 31.82160 | 7004 ft | 174 kts | 205° |
| 2026-04-17 23:36 | -18.02121 | 31.81635 | 7004 ft | 173 kts | 205° |
| 2026-04-17 23:37 | -18.03220 | 31.81113 | 7007 ft | 174 kts | 205° |
| 2026-04-17 23:37 | -18.04323 | 31.80589 | 7007 ft | 174 kts | 205° |
| 2026-04-17 23:37 | -18.05423 | 31.80067 | 6999 ft | 173 kts | 205° |
| 2026-04-17 23:37 | -18.06522 | 31.79546 | 6999 ft | 174 kts | 205° |
| 2026-04-17 23:38 | -18.07615 | 31.79025 | 7004 ft | 172 kts | 205° |
| 2026-04-17 23:38 | -18.08707 | 31.78508 | 7001 ft | 173 kts | 205° |
| 2026-04-17 23:38 | -18.09799 | 31.77988 | 7003 ft | 172 kts | 205° |
| 2026-04-17 23:38 | -18.10892 | 31.77468 | 7003 ft | 173 kts | 205° |
| 2026-04-17 23:39 | -18.11989 | 31.76947 | 7002 ft | 173 kts | 205° |
| 2026-04-17 23:39 | -18.13102 | 31.76418 | 7004 ft | 173 kts | 205° |
| 2026-04-17 23:39 | -18.14188 | 31.75901 | 7001 ft | 174 kts | 205° |
| 2026-04-17 23:39 | -18.15301 | 31.75372 | 6999 ft | 173 kts | 205° |
| 2026-04-17 23:40 | -18.16378 | 31.74860 | 7002 ft | 173 kts | 205° |
| 2026-04-17 23:40 | -18.17475 | 31.74337 | 7001 ft | 173 kts | 205° |
| 2026-04-17 23:40 | -18.18575 | 31.73815 | 7002 ft | 173 kts | 205° |
| 2026-04-17 23:40 | -18.19671 | 31.73293 | 7002 ft | 174 kts | 205° |
| 2026-04-17 23:41 | -18.20792 | 31.72760 | 7002 ft | 174 kts | 206° |
| 2026-04-17 23:41 | -18.21893 | 31.72235 | 7002 ft | 173 kts | 206° |
| 2026-04-17 23:41 | -18.22994 | 31.71719 | 7000 ft | 174 kts | 206° |
| 2026-04-17 23:41 | -18.24089 | 31.71205 | 6999 ft | 172 kts | 206° |
| 2026-04-17 23:42 | -18.25173 | 31.70696 | 6999 ft | 172 kts | 206° |
| 2026-04-17 23:42 | -18.26275 | 31.70178 | 7000 ft | 171 kts | 206° |
| 2026-04-17 23:42 | -18.27360 | 31.69667 | 7001 ft | 171 kts | 206° |
| 2026-04-17 23:42 | -18.28448 | 31.69156 | 6997 ft | 171 kts | 206° |
| 2026-04-17 23:43 | -18.29531 | 31.68646 | 6999 ft | 171 kts | 206° |
| 2026-04-17 23:43 | -18.30614 | 31.68137 | 6998 ft | 170 kts | 206° |
| 2026-04-17 23:43 | -18.31671 | 31.67639 | 6999 ft | 170 kts | 206° |
| 2026-04-17 23:43 | -18.32753 | 31.67130 | 6996 ft | 169 kts | 207° |
| 2026-04-17 23:44 | -18.33825 | 31.66625 | 6989 ft | 168 kts | 206° |
| 2026-04-17 23:44 | -18.34892 | 31.66123 | 6991 ft | 169 kts | 206° |
| 2026-04-17 23:44 | -18.35970 | 31.65616 | 6990 ft | 170 kts | 206° |
| 2026-04-17 23:44 | -18.37048 | 31.65108 | 6989 ft | 169 kts | 206° |
| 2026-04-17 23:45 | -18.39198 | 31.64096 | 6987 ft | 170 kts | 206° |
| 2026-04-17 23:45 | -18.40276 | 31.63588 | 6983 ft | 170 kts | 205° |
| 2026-04-17 23:45 | -18.41354 | 31.63080 | 6987 ft | 170 kts | 206° |
| 2026-04-17 23:46 | -18.42437 | 31.62570 | 6986 ft | 171 kts | 206° |
| 2026-04-17 23:46 | -18.43522 | 31.62057 | 6986 ft | 171 kts | 206° |
| 2026-04-17 23:46 | -18.44606 | 31.61547 | 6986 ft | 171 kts | 206° |
| 2026-04-17 23:46 | -18.45691 | 31.61036 | 6986 ft | 171 kts | 206° |
| 2026-04-17 23:47 | -18.46775 | 31.60525 | 6982 ft | 171 kts | 206° |
| 2026-04-17 23:47 | -18.47856 | 31.60014 | 6981 ft | 170 kts | 206° |
| 2026-04-17 23:47 | -18.48938 | 31.59504 | 6981 ft | 170 kts | 206° |
| 2026-04-17 23:47 | -18.50021 | 31.58994 | 6982 ft | 171 kts | 206° |
| 2026-04-17 23:48 | -18.51105 | 31.58482 | 6983 ft | 171 kts | 206° |
| 2026-04-17 23:48 | -18.52188 | 31.57971 | 6983 ft | 171 kts | 206° |
| 2026-04-17 23:48 | -18.53269 | 31.57461 | 6981 ft | 170 kts | 207° |
| 2026-04-17 23:48 | -18.54346 | 31.56952 | 6980 ft | 169 kts | 207° |
| 2026-04-17 23:49 | -18.55417 | 31.56448 | 6981 ft | 169 kts | 207° |
| 2026-04-17 23:49 | -18.56488 | 31.55942 | 6980 ft | 168 kts | 207° |
| 2026-04-17 23:49 | -18.57552 | 31.55439 | 6980 ft | 168 kts | 207° |
| 2026-04-17 23:49 | -18.58616 | 31.54936 | 6980 ft | 168 kts | 207° |
| 2026-04-17 23:50 | -18.59686 | 31.54431 | 6974 ft | 168 kts | 207° |
| 2026-04-17 23:50 | -18.60755 | 31.53927 | 6973 ft | 168 kts | 207° |
| 2026-04-17 23:50 | -18.61825 | 31.53421 | 6972 ft | 169 kts | 207° |
| 2026-04-17 23:50 | -18.62896 | 31.52915 | 6973 ft | 169 kts | 207° |
| 2026-04-17 23:51 | -18.63965 | 31.52410 | 6972 ft | 169 kts | 207° |
| 2026-04-17 23:51 | -18.65033 | 31.51906 | 6975 ft | 169 kts | 207° |
| 2026-04-17 23:51 | -18.66107 | 31.51397 | 6974 ft | 169 kts | 207° |
| 2026-04-17 23:51 | -18.67179 | 31.50891 | 6976 ft | 169 kts | 207° |
| 2026-04-17 23:52 | -18.68254 | 31.50382 | 6976 ft | 169 kts | 207° |
| 2026-04-17 23:52 | -18.69330 | 31.49874 | 6977 ft | 170 kts | 207° |
| 2026-04-17 23:52 | -18.70408 | 31.49364 | 6976 ft | 169 kts | 207° |
| 2026-04-17 23:52 | -18.71482 | 31.48856 | 6978 ft | 170 kts | 207° |
| 2026-04-17 23:53 | -18.72563 | 31.48344 | 6975 ft | 171 kts | 207° |
| 2026-04-17 23:53 | -18.73646 | 31.47832 | 6975 ft | 170 kts | 207° |
| 2026-04-17 23:53 | -18.74728 | 31.47320 | 6976 ft | 171 kts | 207° |
| 2026-04-17 23:53 | -18.75808 | 31.46808 | 6977 ft | 170 kts | 207° |
| 2026-04-17 23:54 | -18.76889 | 31.46296 | 6979 ft | 171 kts | 207° |
| 2026-04-17 23:54 | -18.77955 | 31.45792 | 6975 ft | 170 kts | 207° |
| 2026-04-17 23:54 | -18.79032 | 31.45282 | 6978 ft | 170 kts | 207° |
| 2026-04-17 23:54 | -18.80113 | 31.44770 | 6977 ft | 170 kts | 207° |
| 2026-04-17 23:55 | -18.81196 | 31.44258 | 6981 ft | 171 kts | 207° |
| 2026-04-17 23:55 | -18.82278 | 31.43745 | 6981 ft | 171 kts | 207° |
| 2026-04-17 23:55 | -18.83362 | 31.43231 | 6982 ft | 171 kts | 207° |
| 2026-04-17 23:55 | -18.84447 | 31.42717 | 6980 ft | 171 kts | 207° |
| 2026-04-17 23:56 | -18.85534 | 31.42201 | 6972 ft | 172 kts | 207° |
| 2026-04-17 23:56 | -18.86618 | 31.41688 | 6969 ft | 170 kts | 207° |
| 2026-04-17 23:56 | -18.87688 | 31.41181 | 6968 ft | 168 kts | 207° |
| 2026-04-17 23:56 | -18.88756 | 31.40675 | 6974 ft | 168 kts | 207° |
| 2026-04-17 23:57 | -18.89817 | 31.40172 | 6974 ft | 167 kts | 207° |
| 2026-04-17 23:57 | -18.90877 | 31.39669 | 6972 ft | 167 kts | 207° |
| 2026-04-17 23:57 | -18.91935 | 31.39167 | 6972 ft | 167 kts | 207° |
| 2026-04-17 23:57 | -18.92992 | 31.38666 | 6973 ft | 167 kts | 207° |
| 2026-04-17 23:58 | -18.93696 | 31.38332 | 6974 ft | 168 kts | 207° |
| 2026-04-17 23:58 | -18.94765 | 31.37824 | 6975 ft | 168 kts | 207° |
| 2026-04-17 23:58 | -18.95832 | 31.37318 | 6972 ft | 168 kts | 207° |
| 2026-04-17 23:58 | -18.96893 | 31.36815 | 6973 ft | 167 kts | 207° |
| 2026-04-17 23:59 | -18.97950 | 31.36313 | 6970 ft | 166 kts | 207° |
| 2026-04-17 23:59 | -18.99008 | 31.35812 | 6970 ft | 167 kts | 207° |
| 2026-04-17 23:59 | -19.00069 | 31.35308 | 6972 ft | 167 kts | 207° |
| 2026-04-17 23:59 | -19.01131 | 31.34803 | 6972 ft | 167 kts | 207° |
| 2026-04-18 00:00 | -19.02192 | 31.34299 | 6968 ft | 167 kts | 207° |
| 2026-04-18 00:00 | -19.03252 | 31.33795 | 6969 ft | 167 kts | 207° |
| 2026-04-18 00:00 | -19.04316 | 31.33290 | 6970 ft | 168 kts | 207° |
| 2026-04-18 00:00 | -19.05378 | 31.32785 | 6970 ft | 168 kts | 207° |
| 2026-04-18 00:01 | -19.06439 | 31.32281 | 6973 ft | 168 kts | 207° |
| 2026-04-18 00:01 | -19.07511 | 31.31773 | 6974 ft | 169 kts | 207° |
| 2026-04-18 00:01 | -19.08582 | 31.31263 | 6968 ft | 168 kts | 206° |
| 2026-04-18 00:01 | -19.09645 | 31.30758 | 6973 ft | 167 kts | 207° |
| 2026-04-18 00:02 | -19.10708 | 31.30258 | 6968 ft | 167 kts | 207° |
| 2026-04-18 00:02 | -19.11771 | 31.29760 | 6973 ft | 167 kts | 206° |
| 2026-04-18 00:02 | -19.12833 | 31.29261 | 6973 ft | 167 kts | 207° |
| 2026-04-18 00:02 | -19.13894 | 31.28763 | 6974 ft | 167 kts | 207° |
| 2026-04-18 00:03 | -19.14954 | 31.28264 | 6976 ft | 167 kts | 206° |
| 2026-04-18 00:03 | -19.16016 | 31.27766 | 6976 ft | 167 kts | 207° |
| 2026-04-18 00:03 | -19.17079 | 31.27266 | 6976 ft | 167 kts | 207° |
| 2026-04-18 00:03 | -19.18142 | 31.26766 | 6976 ft | 167 kts | 207° |
| 2026-04-18 00:04 | -19.19206 | 31.26266 | 6977 ft | 167 kts | 207° |
| 2026-04-18 00:04 | -19.20268 | 31.25766 | 6977 ft | 167 kts | 207° |
| 2026-04-18 00:04 | -19.21333 | 31.25266 | 6977 ft | 168 kts | 207° |
| 2026-04-18 00:04 | -19.22401 | 31.24763 | 6977 ft | 168 kts | 207° |
| 2026-04-18 00:05 | -19.23469 | 31.24260 | 6977 ft | 168 kts | 206° |
| 2026-04-18 00:05 | -19.24536 | 31.23759 | 6977 ft | 168 kts | 207° |
| 2026-04-18 00:05 | -19.25606 | 31.23255 | 6976 ft | 168 kts | 207° |
| 2026-04-18 00:05 | -19.26674 | 31.22753 | 6977 ft | 168 kts | 207° |
| 2026-04-18 00:06 | -19.27745 | 31.22248 | 6979 ft | 169 kts | 206° |
| 2026-04-18 00:06 | -19.28818 | 31.21743 | 6977 ft | 169 kts | 207° |
| 2026-04-18 00:06 | -19.29888 | 31.21239 | 6975 ft | 168 kts | 206° |
| 2026-04-18 00:06 | -19.30956 | 31.20737 | 6978 ft | 168 kts | 207° |
| 2026-04-18 00:07 | -19.32026 | 31.20232 | 6977 ft | 168 kts | 206° |
| 2026-04-18 00:07 | -19.33094 | 31.19729 | 6977 ft | 168 kts | 207° |
| 2026-04-18 00:07 | -19.34158 | 31.19228 | 6978 ft | 168 kts | 207° |
| 2026-04-18 00:07 | -19.35229 | 31.18723 | 6987 ft | 168 kts | 207° |
| 2026-04-18 00:08 | -19.36300 | 31.18218 | 6979 ft | 169 kts | 207° |
| 2026-04-18 00:08 | -19.37371 | 31.17713 | 6978 ft | 168 kts | 207° |
| 2026-04-18 00:08 | -19.38441 | 31.17209 | 6980 ft | 168 kts | 207° |
| 2026-04-18 00:08 | -19.39509 | 31.16705 | 6978 ft | 168 kts | 207° |
| 2026-04-18 00:09 | -19.40573 | 31.16204 | 6978 ft | 168 kts | 207° |
| 2026-04-18 00:09 | -19.41640 | 31.15700 | 6979 ft | 168 kts | 207° |
| 2026-04-18 00:09 | -19.42708 | 31.15197 | 6979 ft | 168 kts | 207° |
| 2026-04-18 00:09 | -19.43781 | 31.14691 | 6976 ft | 168 kts | 207° |
| 2026-04-18 00:10 | -19.44848 | 31.14188 | 6981 ft | 168 kts | 207° |
| 2026-04-18 00:10 | -19.45918 | 31.13682 | 6980 ft | 168 kts | 207° |
| 2026-04-18 00:10 | -19.46970 | 31.13186 | 6980 ft | 168 kts | 207° |
| 2026-04-18 00:10 | -19.48032 | 31.12685 | 6980 ft | 167 kts | 207° |
| 2026-04-18 00:11 | -19.49094 | 31.12183 | 6977 ft | 167 kts | 207° |
| 2026-04-18 00:11 | -19.50155 | 31.11682 | 6979 ft | 167 kts | 207° |
| 2026-04-18 00:11 | -19.51218 | 31.11180 | 6978 ft | 167 kts | 207° |
| 2026-04-18 00:11 | -19.52282 | 31.10678 | 6978 ft | 167 kts | 207° |
| 2026-04-18 00:12 | -19.53344 | 31.10176 | 6977 ft | 167 kts | 206° |
| 2026-04-18 00:12 | -19.54404 | 31.09676 | 6978 ft | 167 kts | 207° |
| 2026-04-18 00:12 | -19.55462 | 31.09175 | 6976 ft | 167 kts | 207° |
| 2026-04-18 00:12 | -19.56527 | 31.08672 | 6975 ft | 168 kts | 207° |
| 2026-04-18 00:13 | -19.57593 | 31.08168 | 6980 ft | 168 kts | 207° |
| 2026-04-18 00:13 | -19.58661 | 31.07663 | 6979 ft | 168 kts | 206° |
| 2026-04-18 00:13 | -19.59743 | 31.07152 | 6979 ft | 168 kts | 207° |
| 2026-04-18 00:13 | -19.60797 | 31.06653 | 6980 ft | 169 kts | 206° |
| 2026-04-18 00:14 | -19.61869 | 31.06146 | 6972 ft | 168 kts | 207° |
| 2026-04-18 00:14 | -19.62939 | 31.05640 | 6973 ft | 169 kts | 207° |
| 2026-04-18 00:14 | -19.64012 | 31.05132 | 6973 ft | 169 kts | 206° |
| 2026-04-18 00:14 | -19.65084 | 31.04625 | 6972 ft | 169 kts | 207° |
| 2026-04-18 00:15 | -19.66156 | 31.04118 | 6971 ft | 168 kts | 206° |
| 2026-04-18 00:15 | -19.67221 | 31.03615 | 6972 ft | 168 kts | 206° |
| 2026-04-18 00:15 | -19.68285 | 31.03111 | 6971 ft | 167 kts | 207° |
| 2026-04-18 00:15 | -19.69348 | 31.02607 | 6972 ft | 167 kts | 207° |
| 2026-04-18 00:16 | -19.70409 | 31.02105 | 6971 ft | 167 kts | 207° |
| 2026-04-18 00:16 | -19.71471 | 31.01603 | 6970 ft | 167 kts | 207° |
| 2026-04-18 00:16 | -19.72525 | 31.01103 | 6970 ft | 166 kts | 207° |
| 2026-04-18 00:16 | -19.73582 | 31.00602 | 6968 ft | 166 kts | 207° |
| 2026-04-18 00:17 | -19.74638 | 31.00102 | 6962 ft | 166 kts | 207° |
| 2026-04-18 00:17 | -19.75696 | 30.99601 | 6961 ft | 166 kts | 207° |
| 2026-04-18 00:17 | -19.76756 | 30.99099 | 6962 ft | 167 kts | 207° |
| 2026-04-18 00:17 | -19.77819 | 30.98595 | 6964 ft | 168 kts | 207° |
| 2026-04-18 00:18 | -19.78885 | 30.98089 | 6966 ft | 168 kts | 207° |
| 2026-04-18 00:18 | -19.79956 | 30.97581 | 6965 ft | 168 kts | 207° |
| 2026-04-18 00:18 | -19.80952 | 30.97109 | 6969 ft | 168 kts | 207° |
| 2026-04-18 00:18 | -19.82021 | 30.96603 | 6964 ft | 167 kts | 207° |
| 2026-04-18 00:19 | -19.83081 | 30.96098 | 6960 ft | 167 kts | 207° |
| 2026-04-18 00:19 | -19.84125 | 30.95603 | 6752 ft | 160 kts | 207° |
| 2026-04-18 00:19 | -19.85125 | 30.95127 | 6479 ft | 156 kts | 207° |
| 2026-04-18 00:19 | -19.86110 | 30.94659 | 6205 ft | 154 kts | 207° |
| 2026-04-18 00:20 | -19.87086 | 30.94195 | 5917 ft | 154 kts | 207° |
| 2026-04-18 00:20 | -19.88059 | 30.93734 | 5649 ft | 153 kts | 206° |
| 2026-04-18 00:20 | -19.89039 | 30.93271 | 5377 ft | 155 kts | 206° |
| 2026-04-18 00:20 | -19.90073 | 30.92784 | 5137 ft | 168 kts | 206° |
| 2026-04-18 00:21 | -19.91158 | 30.92267 | 4962 ft | 170 kts | 205° |
| 2026-04-18 00:21 | -19.92226 | 30.91759 | 4958 ft | 168 kts | 206° |
| 2026-04-18 00:21 | -19.93288 | 30.91255 | 4956 ft | 166 kts | 206° |
| 2026-04-18 00:21 | -19.94340 | 30.90756 | 4955 ft | 164 kts | 206° |
| 2026-04-18 00:22 | -19.95383 | 30.90260 | 4950 ft | 164 kts | 206° |
| 2026-04-18 00:22 | -19.96426 | 30.89765 | 4951 ft | 164 kts | 205° |
| 2026-04-18 00:22 | -19.97461 | 30.89273 | 4947 ft | 163 kts | 205° |
| 2026-04-18 00:22 | -19.98500 | 30.88779 | 4950 ft | 163 kts | 205° |
| 2026-04-18 00:23 | -19.99533 | 30.88287 | 4951 ft | 163 kts | 206° |
| 2026-04-18 00:23 | -20.00576 | 30.87812 | 4940 ft | 163 kts | 203° |
| 2026-04-18 00:23 | -20.01633 | 30.87376 | 4940 ft | 163 kts | 202° |
| 2026-04-18 00:23 | -20.02639 | 30.86835 | 4870 ft | 161 kts | 224° |
| 2026-04-18 00:24 | -20.03160 | 30.85891 | 4577 ft | 142 kts | 250° |
| 2026-04-18 00:24 | -20.03856 | 30.85295 | 4301 ft | 120 kts | 159° |
| 2026-04-18 00:24 | -20.04600 | 30.85562 | 3976 ft | 106 kts | 155° |
| 2026-04-18 00:24 | -20.05254 | 30.85818 | 3693 ft | 94 kts | 162° |
| 2026-04-18 00:25 | -20.05813 | 30.86011 | 3593 ft | 73 kts | 161° |
| 2026-04-18 00:25 | -20.06226 | 30.86154 | 3597 ft | 47 kts | 161° |
| 2026-04-18 00:25 | -20.06407 | 30.86214 | 3599 ft | 14 kts | 162° |
| 2026-04-18 00:25 | -20.06433 | 30.86222 | 3599 ft | 0 kts | 163° |
| 2026-04-18 00:26 | -20.06447 | 30.86221 | 3598 ft | 2 kts | 105° |
| 2026-04-18 00:26 | -20.06436 | 30.86221 | 3599 ft | 0 kts | 336° |
| 2026-04-18 00:26 | -20.06427 | 30.86217 | 3599 ft | 8 kts | 340° |
| 2026-04-18 00:26 | -20.06282 | 30.86171 | 3598 ft | 29 kts | 341° |
| 2026-04-18 00:27 | -20.06168 | 30.86075 | 3597 ft | 11 kts | 290° |
| 2026-04-18 00:27 | -20.06155 | 30.86039 | 3598 ft | 5 kts | 255° |
| 2026-04-18 00:27 | -20.06155 | 30.86037 | 3598 ft | 0 kts | 255° |